createdAt,value
2018-07-17T00:00:10.479Z,19.20
2018-07-17T00:02:39.416Z,19.20
2018-07-17T00:05:08.966Z,19.20
2018-07-17T00:07:38.846Z,19.20
2018-07-17T00:10:08.045Z,19.10
2018-07-17T00:12:36.735Z,19.10
2018-07-17T00:15:05.427Z,19.10
2018-07-17T00:17:35.896Z,19.10
2018-07-17T00:20:04.706Z,19.10
2018-07-17T00:22:34.294Z,19.00
2018-07-17T00:25:03.073Z,19.00
2018-07-17T00:27:31.654Z,19.00
2018-07-17T00:30:00.206Z,19.00
2018-07-17T00:32:28.732Z,18.90
2018-07-17T00:34:57.175Z,18.90
2018-07-17T00:37:25.656Z,18.80
2018-07-17T00:39:54.184Z,18.80
2018-07-17T00:42:22.719Z,18.70
2018-07-17T00:44:51.231Z,18.70
2018-07-17T00:47:19.742Z,18.60
2018-07-17T00:49:48.293Z,18.50
2018-07-17T00:52:16.840Z,18.50
2018-07-17T00:54:45.551Z,18.50
2018-07-17T00:57:14.064Z,18.40
2018-07-17T00:59:42.700Z,18.40
2018-07-17T01:02:16.493Z,18.30
2018-07-17T01:04:54.052Z,18.20
2018-07-17T01:07:27.818Z,18.20
2018-07-17T01:10:04.002Z,18.20
2018-07-17T01:12:31.629Z,18.20
2018-07-17T01:15:06.924Z,18.20
2018-07-17T01:17:36.392Z,18.20
2018-07-17T01:20:05.070Z,18.20
2018-07-17T01:22:33.584Z,18.20
2018-07-17T01:25:02.351Z,18.20
2018-07-17T01:27:30.863Z,18.10
2018-07-17T01:29:59.431Z,18.10
2018-07-17T01:32:27.909Z,18.10
2018-07-17T01:34:57.068Z,18.10
2018-07-17T01:37:25.604Z,18.10
2018-07-17T01:39:54.128Z,18.10
2018-07-17T01:42:22.622Z,18.00
2018-07-17T01:44:53.198Z,18.00
2018-07-17T01:47:21.686Z,18.00
2018-07-17T01:49:50.171Z,18.00
2018-07-17T01:52:18.745Z,18.10
2018-07-17T01:54:47.668Z,18.10
2018-07-17T01:57:16.186Z,18.10
2018-07-17T01:59:44.673Z,18.10
2018-07-17T02:02:14.175Z,18.20
2018-07-17T02:04:43.307Z,18.20
2018-07-17T02:07:11.799Z,18.10
2018-07-17T02:09:40.287Z,18.10
2018-07-17T02:12:08.811Z,18.10
2018-07-17T02:14:37.461Z,18.00
2018-07-17T02:17:06.259Z,17.90
2018-07-17T02:19:34.784Z,17.90
2018-07-17T02:22:03.301Z,17.80
2018-07-17T02:24:31.858Z,17.80
2018-07-17T02:27:00.472Z,17.80
2018-07-17T02:29:28.958Z,17.70
2018-07-17T02:31:57.487Z,17.70
2018-07-17T02:34:29.788Z,17.70
2018-07-17T02:36:58.312Z,17.60
2018-07-17T02:39:28.576Z,17.60
2018-07-17T02:41:57.710Z,17.50
2018-07-17T02:44:26.236Z,17.50
2018-07-17T02:46:54.717Z,17.40
2018-07-17T02:49:23.626Z,17.40
2018-07-17T02:51:52.107Z,17.40
2018-07-17T02:54:22.120Z,17.30
2018-07-17T02:56:50.604Z,17.30
2018-07-17T02:59:19.129Z,17.30
2018-07-17T03:01:49.108Z,17.20
2018-07-17T03:04:17.620Z,17.20
2018-07-17T03:06:46.100Z,17.20
2018-07-17T03:09:16.673Z,17.10
2018-07-17T03:11:46.317Z,17.10
2018-07-17T03:14:14.851Z,17.10
2018-07-17T03:16:43.452Z,17.10
2018-07-17T03:19:12.007Z,17.00
2018-07-17T03:21:40.527Z,17.00
2018-07-17T03:24:11.294Z,17.00
2018-07-17T03:26:42.240Z,17.00
2018-07-17T03:29:10.786Z,17.00
2018-07-17T03:31:39.312Z,17.00
2018-07-17T03:34:07.782Z,17.00
2018-07-17T03:36:36.311Z,17.00
2018-07-17T03:39:06.627Z,16.90
2018-07-17T03:41:35.210Z,16.80
2018-07-17T03:44:03.805Z,16.80
2018-07-17T03:46:32.902Z,16.70
2018-07-17T03:49:01.395Z,16.70
2018-07-17T03:51:29.873Z,16.70
2018-07-17T03:53:58.400Z,16.70
2018-07-17T03:56:26.891Z,16.70
2018-07-17T03:58:55.527Z,16.70
2018-07-17T04:01:24.290Z,16.70
2018-07-17T04:03:52.969Z,16.70
2018-07-17T04:06:21.431Z,16.70
2018-07-17T04:08:50.157Z,16.70
2018-07-17T04:11:18.676Z,16.70
2018-07-17T04:13:47.236Z,16.70
2018-07-17T04:16:16.391Z,16.70
2018-07-17T04:18:45.009Z,16.70
2018-07-17T04:21:13.612Z,16.70
2018-07-17T04:23:42.667Z,16.80
2018-07-17T04:26:11.256Z,16.80
2018-07-17T04:28:39.784Z,16.70
2018-07-17T04:31:08.275Z,16.70
2018-07-17T04:33:36.779Z,16.70
2018-07-17T04:36:05.513Z,16.80
2018-07-17T04:38:34.116Z,16.80
2018-07-17T04:41:02.759Z,16.80
2018-07-17T04:43:31.291Z,16.90
2018-07-17T04:45:59.793Z,16.90
2018-07-17T04:48:28.687Z,17.00
2018-07-17T04:50:57.162Z,17.10
2018-07-17T04:53:25.661Z,17.20
2018-07-17T04:55:54.215Z,17.30
2018-07-17T04:58:22.728Z,17.40
2018-07-17T05:00:51.190Z,17.40
2018-07-17T05:03:19.696Z,17.50
2018-07-17T05:05:48.308Z,17.60
2018-07-17T05:08:16.871Z,17.70
2018-07-17T05:10:45.388Z,17.80
2018-07-17T05:13:13.919Z,17.90
2018-07-17T05:15:42.423Z,18.00
2018-07-17T05:18:11.415Z,18.10
2018-07-17T05:20:40.843Z,18.20
2018-07-17T05:23:09.311Z,18.30
2018-07-17T05:25:37.856Z,18.30
2018-07-17T05:28:06.427Z,18.40
2018-07-17T05:30:34.921Z,18.50
2018-07-17T05:33:03.678Z,18.50
2018-07-17T05:35:32.200Z,18.60
2018-07-17T05:38:00.900Z,18.60
2018-07-17T05:40:29.537Z,18.70
2018-07-17T05:42:58.063Z,18.70
2018-07-17T05:45:26.622Z,18.80
2018-07-17T05:47:55.118Z,18.90
2018-07-17T05:50:23.591Z,19.00
2018-07-17T05:52:52.064Z,19.00
2018-07-17T05:55:20.608Z,19.00
2018-07-17T05:57:49.251Z,19.10
2018-07-17T06:00:17.781Z,19.10
2018-07-17T06:02:46.316Z,19.20
2018-07-17T06:05:15.016Z,19.20
2018-07-17T06:07:43.567Z,19.20
2018-07-17T06:10:12.121Z,19.30
2018-07-17T06:12:40.714Z,19.30
2018-07-17T06:15:09.328Z,19.40
2018-07-17T06:17:37.916Z,19.40
2018-07-17T06:20:07.880Z,19.40
2018-07-17T06:22:36.540Z,19.60
2018-07-17T06:25:06.792Z,19.70
2018-07-17T06:27:35.278Z,19.80
2018-07-17T06:30:04.607Z,19.90
2018-07-17T06:32:33.140Z,19.90
2018-07-17T06:35:01.736Z,19.90
2018-07-17T06:37:30.256Z,19.90
2018-07-17T06:39:59.117Z,19.90
2018-07-17T06:42:27.716Z,19.90
2018-07-17T06:44:56.152Z,19.90
2018-07-17T06:47:24.624Z,20.00
2018-07-17T06:49:53.078Z,20.10
2018-07-17T06:52:22.824Z,20.20
2018-07-17T06:54:51.309Z,20.30
2018-07-17T06:57:20.879Z,20.40
2018-07-17T06:59:49.343Z,20.50
2018-07-17T07:02:18.195Z,20.70
2018-07-17T07:04:46.742Z,20.70
2018-07-17T07:07:15.352Z,20.80
2018-07-17T07:09:44.794Z,20.80
2018-07-17T07:12:13.254Z,20.90
2018-07-17T07:14:42.258Z,21.10
2018-07-17T07:17:10.908Z,21.30
2018-07-17T07:19:39.382Z,21.40
2018-07-17T07:22:07.958Z,21.50
2018-07-17T07:24:36.508Z,21.60
2018-07-17T07:27:05.075Z,21.70
2018-07-17T07:29:33.622Z,21.70
2018-07-17T07:32:02.146Z,21.80
2018-07-17T07:34:30.708Z,21.80
2018-07-17T07:36:59.244Z,21.90
2018-07-17T07:39:27.726Z,22.00
2018-07-17T07:41:56.259Z,22.20
2018-07-17T07:44:24.785Z,22.30
2018-07-17T07:46:53.278Z,22.40
2018-07-17T07:49:22.248Z,22.50
2018-07-17T07:51:50.827Z,22.60
2018-07-17T07:54:19.430Z,22.60
2018-07-17T07:56:48.637Z,22.70
2018-07-17T07:59:17.124Z,22.90
2018-07-17T08:01:45.674Z,23.10
2018-07-17T08:04:14.432Z,23.30
2018-07-17T08:06:42.978Z,23.30
2018-07-17T08:09:11.487Z,23.40
2018-07-17T08:11:40.047Z,23.50
2018-07-17T08:14:08.645Z,23.60
2018-07-17T08:16:37.192Z,23.60
2018-07-17T08:19:05.684Z,23.70
2018-07-17T08:21:34.178Z,23.80
2018-07-17T08:24:02.674Z,24.00
2018-07-17T08:26:31.240Z,24.10
2018-07-17T08:28:59.754Z,24.30
2018-07-17T08:31:28.271Z,24.50
2018-07-17T08:33:56.867Z,24.60
2018-07-17T08:36:25.474Z,24.80
2018-07-17T08:38:54.023Z,24.90
2018-07-17T08:41:22.567Z,25.00
2018-07-17T08:43:51.120Z,25.20
2018-07-17T08:48:50.686Z,25.30
2018-07-17T08:51:19.477Z,25.40
2018-07-17T08:53:48.300Z,25.70
2018-07-17T08:56:17.602Z,25.90
2018-07-17T08:58:46.077Z,26.10
2018-07-17T09:01:14.527Z,26.30
2018-07-17T09:03:43.101Z,26.40
2018-07-17T09:06:11.592Z,26.50
2018-07-17T09:08:40.212Z,26.60
2018-07-17T09:11:08.796Z,26.80
2018-07-17T09:13:37.471Z,26.90
2018-07-17T09:16:06.115Z,27.10
2018-07-17T09:18:35.364Z,27.10
2018-07-17T09:21:03.856Z,27.30
2018-07-17T09:23:32.452Z,27.50
2018-07-17T09:26:02.313Z,27.70
2018-07-17T09:28:31.040Z,27.80
2018-07-17T09:31:00.952Z,27.90
2018-07-17T09:33:31.102Z,27.90
2018-07-17T09:36:00.288Z,27.90
2018-07-17T09:38:29.142Z,28.00
2018-07-17T09:40:57.612Z,28.20
2018-07-17T09:43:26.066Z,28.40
2018-07-17T09:45:54.534Z,28.60
2018-07-17T09:48:24.820Z,28.80
2018-07-17T09:50:56.429Z,29.00
2018-07-17T09:53:26.215Z,29.10
2018-07-17T09:55:55.137Z,29.20
2018-07-17T09:58:26.211Z,29.20
2018-07-17T10:01:01.175Z,29.20
2018-07-17T10:03:29.710Z,29.30
2018-07-17T10:05:58.729Z,29.40
2018-07-17T10:08:31.560Z,29.50
2018-07-17T10:11:00.836Z,29.60
2018-07-17T10:13:29.851Z,29.80
2018-07-17T10:15:58.393Z,30.00
2018-07-17T10:18:27.003Z,30.20
2018-07-17T10:20:56.592Z,30.40
2018-07-17T10:23:25.184Z,30.60
2018-07-17T10:25:53.679Z,30.80
2018-07-17T10:28:22.284Z,31.00
2018-07-17T10:30:50.806Z,31.10
2018-07-17T10:33:19.392Z,31.20
2018-07-17T10:35:47.999Z,31.40
2018-07-17T10:38:16.470Z,31.80
2018-07-17T10:40:45.040Z,32.10
2018-07-17T10:43:13.618Z,32.40
2018-07-17T10:45:42.185Z,32.50
2018-07-17T10:48:10.669Z,32.70
2018-07-17T10:50:39.710Z,32.90
2018-07-17T10:53:08.351Z,33.00
2018-07-17T10:55:36.841Z,32.70
2018-07-17T10:58:05.611Z,32.40
2018-07-17T11:00:34.115Z,32.30
2018-07-17T11:03:02.709Z,32.30
2018-07-17T11:05:31.329Z,32.20
2018-07-17T11:08:02.378Z,32.10
2018-07-17T11:10:31.754Z,31.70
2018-07-17T11:13:00.268Z,31.20
2018-07-17T11:15:28.777Z,30.70
2018-07-17T11:17:57.335Z,30.40
2018-07-17T11:20:25.842Z,30.10
2018-07-17T11:22:55.276Z,30.10
2018-07-17T11:25:23.961Z,30.30
2018-07-17T11:27:53.077Z,30.50
2018-07-17T11:30:22.035Z,30.80
2018-07-17T11:32:51.398Z,31.50
2018-07-17T11:35:20.224Z,32.20
2018-07-17T11:37:49.451Z,32.80
2018-07-17T11:40:22.122Z,33.30
2018-07-17T11:42:50.863Z,33.60
2018-07-17T11:45:19.619Z,33.80
2018-07-17T11:47:48.144Z,33.80
2018-07-17T11:50:16.729Z,33.60
2018-07-17T11:52:45.282Z,33.60
2018-07-17T11:55:13.853Z,33.80
2018-07-17T11:57:42.515Z,34.00
2018-07-17T12:00:11.134Z,34.30
2018-07-17T12:02:39.694Z,34.50
2018-07-17T12:05:08.280Z,34.50
2018-07-17T12:07:36.926Z,34.20
2018-07-17T12:10:05.503Z,34.10
2018-07-17T12:12:33.988Z,34.30
2018-07-17T12:15:02.531Z,35.50
2018-07-17T12:17:31.025Z,37.00
2018-07-17T12:19:59.933Z,38.30
2018-07-17T12:22:28.415Z,38.90
2018-07-17T12:24:56.920Z,38.80
2018-07-17T12:27:25.419Z,37.40
2018-07-17T12:29:53.916Z,36.00
2018-07-17T12:32:22.436Z,35.00
2018-07-17T12:34:51.177Z,34.30
2018-07-17T12:38:50.560Z,33.60
2018-07-17T12:41:19.196Z,33.20
2018-07-17T12:43:47.813Z,32.40
2018-07-17T12:46:16.468Z,32.30
2018-07-17T12:48:44.947Z,32.30
2018-07-17T12:51:13.581Z,32.10
2018-07-17T12:53:42.083Z,31.90
2018-07-17T12:56:10.661Z,31.60
2018-07-17T12:58:39.184Z,31.50
2018-07-17T13:01:07.659Z,32.20
2018-07-17T13:03:36.160Z,33.10
2018-07-17T13:06:04.673Z,33.20
2018-07-17T13:08:33.191Z,32.70
2018-07-17T13:11:02.178Z,32.30
2018-07-17T13:13:30.762Z,32.70
2018-07-17T13:15:59.334Z,33.50
2018-07-17T13:18:27.808Z,34.00
2018-07-17T13:20:56.295Z,34.50
2018-07-17T13:23:24.853Z,34.70
2018-07-17T13:25:53.470Z,34.60
2018-07-17T13:28:22.175Z,36.20
2018-07-17T13:30:51.151Z,38.70
2018-07-17T13:33:19.784Z,41.00
2018-07-17T13:35:48.359Z,42.40
2018-07-17T13:38:16.919Z,43.00
2018-07-17T13:40:45.467Z,43.70
2018-07-17T13:43:14.682Z,44.00
2018-07-17T13:45:43.561Z,43.90
2018-07-17T13:48:13.281Z,43.70
2018-07-17T13:50:41.818Z,42.30
2018-07-17T13:53:11.044Z,40.10
2018-07-17T13:55:39.622Z,39.00
2018-07-17T14:00:36.351Z,37.00
2018-07-17T14:03:04.836Z,36.00
2018-07-17T14:05:36.726Z,34.70
2018-07-17T14:10:37.220Z,34.80
2018-07-17T14:13:06.081Z,37.10
2018-07-17T14:15:38.213Z,38.90
2018-07-17T14:18:06.761Z,40.30
2018-07-17T14:20:35.365Z,39.90
2018-07-17T14:23:03.892Z,38.40
2018-07-17T14:25:33.130Z,36.70
2018-07-17T14:28:02.025Z,35.40
2018-07-17T14:30:30.524Z,34.40
2018-07-17T14:32:59.030Z,33.60
2018-07-17T14:35:27.534Z,32.80
2018-07-17T14:37:56.155Z,32.30
2018-07-17T14:40:25.036Z,31.80
2018-07-17T14:42:53.580Z,31.50
2018-07-17T14:45:22.148Z,31.20
2018-07-17T14:47:50.767Z,31.00
2018-07-17T14:50:20.266Z,30.90
2018-07-17T14:52:49.611Z,30.90
2018-07-17T14:55:19.356Z,30.90
2018-07-17T14:57:49.296Z,31.00
2018-07-17T15:00:17.887Z,31.00
2018-07-17T15:02:50.781Z,30.90
2018-07-17T15:05:21.246Z,30.90
2018-07-17T15:07:51.343Z,30.70
2018-07-17T15:10:21.242Z,30.60
2018-07-17T15:12:49.813Z,30.50
2018-07-17T15:15:22.003Z,30.60
2018-07-17T15:17:51.480Z,30.60
2018-07-17T15:20:21.279Z,31.10
2018-07-17T15:22:51.658Z,32.50
2018-07-17T15:25:21.471Z,33.40
2018-07-17T15:27:51.383Z,33.80
2018-07-17T15:30:19.843Z,33.60
2018-07-17T15:32:48.440Z,32.90
2018-07-17T15:35:22.128Z,32.30
2018-07-17T15:37:51.903Z,31.90
2018-07-17T15:40:21.953Z,32.20
2018-07-17T15:42:51.767Z,32.50
2018-07-17T15:45:20.450Z,32.50
2018-07-17T15:47:49.021Z,32.60
2018-07-17T15:50:17.670Z,32.60
2018-07-17T15:52:46.659Z,32.20
2018-07-17T15:55:15.296Z,31.60
2018-07-17T15:57:43.838Z,31.40
2018-07-17T16:00:12.381Z,31.20
2018-07-17T16:02:41.440Z,31.00
2018-07-17T16:05:12.076Z,30.90
2018-07-17T16:07:40.609Z,30.90
2018-07-17T16:10:09.305Z,30.70
2018-07-17T16:12:38.192Z,30.70
2018-07-17T16:15:07.022Z,30.60
2018-07-17T16:17:36.073Z,30.10
2018-07-17T16:20:05.276Z,29.70
2018-07-17T16:22:33.784Z,29.50
2018-07-17T16:25:02.226Z,29.30
2018-07-17T16:27:30.783Z,29.00
2018-07-17T16:29:59.335Z,28.80
2018-07-17T16:32:30.039Z,28.70
2018-07-17T16:34:58.615Z,28.70
2018-07-17T16:37:27.363Z,28.50
2018-07-17T16:39:55.991Z,28.40
2018-07-17T16:42:24.583Z,28.30
2018-07-17T16:44:56.238Z,28.20
2018-07-17T16:47:24.814Z,28.20
2018-07-17T16:49:53.340Z,28.10
2018-07-17T16:52:21.853Z,28.10
2018-07-17T16:54:50.403Z,28.00
2018-07-17T16:57:18.916Z,27.90
2018-07-17T16:59:47.536Z,27.90
2018-07-17T17:02:16.095Z,27.80
2018-07-17T17:04:44.592Z,27.70
2018-07-17T17:07:14.982Z,27.70
2018-07-17T17:09:43.513Z,27.60
2018-07-17T17:12:12.930Z,27.60
2018-07-17T17:14:41.400Z,27.60
2018-07-17T17:17:10.070Z,27.60
2018-07-17T17:19:38.623Z,27.60
2018-07-17T17:22:07.160Z,27.60
2018-07-17T17:24:36.066Z,27.60
2018-07-17T17:27:04.849Z,27.60
2018-07-17T17:29:33.396Z,27.60
2018-07-17T17:32:01.937Z,27.60
2018-07-17T17:34:31.089Z,27.60
2018-07-17T17:36:59.601Z,27.50
2018-07-17T17:39:28.240Z,27.40
2018-07-17T17:41:56.758Z,27.30
2018-07-17T17:44:25.304Z,27.30
2018-07-17T17:46:53.817Z,27.20
2018-07-17T17:49:22.352Z,27.10
2018-07-17T17:51:50.870Z,27.10
2018-07-17T17:54:19.446Z,27.00
2018-07-17T17:56:48.048Z,26.90
2018-07-17T17:59:17.039Z,26.90
2018-07-17T18:01:46.121Z,26.80
2018-07-17T18:04:14.591Z,26.80
2018-07-17T18:06:43.172Z,26.80
2018-07-17T18:09:11.685Z,26.80
2018-07-17T18:11:40.199Z,26.80
2018-07-17T18:14:10.715Z,26.90
2018-07-17T18:16:39.191Z,27.20
2018-07-17T18:19:07.794Z,27.30
2018-07-17T18:21:36.423Z,27.70
2018-07-17T18:24:04.966Z,28.10
2018-07-17T18:26:33.493Z,28.10
2018-07-17T18:29:02.107Z,28.00
2018-07-17T18:31:30.715Z,27.90
2018-07-17T18:33:59.291Z,27.70
2018-07-17T18:36:27.855Z,27.60
2018-07-17T18:38:56.398Z,27.40
2018-07-17T18:41:25.080Z,27.20
2018-07-17T18:43:53.682Z,27.10
2018-07-17T18:46:22.196Z,26.90
2018-07-17T18:48:52.094Z,26.80
2018-07-17T18:53:54.619Z,26.50
2018-07-17T18:56:23.186Z,26.40
2018-07-17T18:58:51.742Z,26.30
2018-07-17T19:01:20.304Z,26.30
2018-07-17T19:03:48.954Z,26.20
2018-07-17T19:06:18.479Z,26.00
2018-07-17T19:08:46.993Z,25.90
2018-07-17T19:11:15.627Z,25.80
2018-07-17T19:13:45.756Z,25.70
2018-07-17T19:16:14.258Z,25.60
2018-07-17T19:18:42.783Z,25.50
2018-07-17T19:21:11.303Z,25.30
2018-07-17T19:23:41.471Z,25.20
2018-07-17T19:26:16.336Z,25.00
2018-07-17T19:28:45.800Z,24.90
2018-07-17T19:31:14.378Z,24.70
2018-07-17T19:33:42.908Z,24.60
2018-07-17T19:36:11.396Z,24.40
2018-07-17T19:38:40.667Z,24.30
2018-07-17T19:41:09.332Z,24.20
2018-07-17T19:43:38.484Z,24.10
2018-07-17T19:46:11.294Z,24.00
2018-07-17T19:48:40.422Z,24.00
2018-07-17T19:51:09.864Z,24.20
2018-07-17T19:53:38.396Z,24.40
2018-07-17T19:56:07.037Z,24.40
2018-07-17T19:58:35.579Z,24.40
2018-07-17T20:01:04.199Z,24.40
2018-07-17T20:03:32.712Z,24.40
2018-07-17T20:06:01.308Z,24.30
2018-07-17T20:08:29.906Z,24.30
2018-07-17T20:10:58.412Z,24.20
2018-07-17T20:13:26.940Z,24.10
2018-07-17T20:15:55.771Z,24.00
2018-07-17T20:18:24.885Z,23.90
2018-07-17T20:20:53.415Z,23.80
2018-07-17T20:23:22.933Z,23.80
2018-07-17T20:25:52.581Z,23.70
2018-07-17T20:28:24.633Z,23.70
2018-07-17T20:30:54.852Z,23.60
2018-07-17T20:33:23.491Z,23.60
2018-07-17T20:35:52.165Z,23.60
2018-07-17T20:38:20.714Z,23.60
2018-07-17T20:40:49.329Z,23.60
2018-07-17T20:43:17.851Z,23.60
2018-07-17T20:45:46.917Z,23.60
2018-07-17T20:48:15.659Z,23.60
2018-07-17T20:50:44.239Z,23.60
2018-07-17T20:53:12.889Z,23.60
2018-07-17T20:55:41.471Z,23.50
2018-07-17T20:58:12.546Z,23.50
2018-07-17T21:00:41.182Z,23.50
2018-07-17T21:03:09.753Z,23.40
2018-07-17T21:05:38.289Z,23.30
2018-07-17T21:08:06.979Z,23.30
2018-07-17T21:10:35.628Z,23.30
2018-07-17T21:13:05.278Z,23.20
2018-07-17T21:15:33.751Z,23.20
2018-07-17T21:18:02.263Z,23.20
2018-07-17T21:20:30.814Z,23.20
2018-07-17T21:22:59.369Z,23.20
2018-07-17T21:25:28.016Z,23.30
2018-07-17T21:27:56.520Z,23.20
2018-07-17T21:30:25.073Z,23.20
2018-07-17T21:32:54.563Z,23.20
2018-07-17T21:35:23.107Z,23.10
2018-07-17T21:37:51.744Z,23.10
2018-07-17T21:40:20.329Z,23.00
2018-07-17T21:42:49.721Z,23.00
2018-07-17T21:45:20.115Z,22.90
2018-07-17T21:47:50.199Z,22.80
2018-07-17T21:50:21.625Z,22.70
2018-07-17T21:52:51.252Z,22.60
2018-07-17T21:55:22.605Z,22.60
2018-07-17T21:57:51.125Z,22.50
2018-07-17T22:00:24.977Z,22.40
2018-07-17T22:02:57.698Z,22.40
2018-07-17T22:05:26.412Z,22.40
2018-07-17T22:08:07.991Z,22.50
2018-07-17T22:10:36.758Z,22.40
2018-07-17T22:13:07.647Z,22.40
2018-07-17T22:15:36.221Z,22.40
2018-07-17T22:18:09.759Z,22.30
2018-07-17T22:20:39.232Z,22.30
2018-07-17T22:23:07.807Z,22.30
2018-07-17T22:25:37.114Z,22.30
2018-07-17T22:28:06.062Z,22.20
2018-07-17T22:30:34.512Z,22.20
2018-07-17T22:33:02.960Z,22.10
2018-07-17T22:35:31.497Z,21.90
2018-07-17T22:38:00.045Z,21.80
2018-07-17T22:40:28.635Z,21.80
2018-07-17T22:42:57.131Z,21.70
2018-07-17T22:45:26.103Z,21.60
2018-07-17T22:50:24.648Z,21.60
2018-07-17T22:52:53.172Z,21.60
2018-07-17T22:55:21.673Z,21.60
2018-07-17T22:57:50.163Z,21.60
2018-07-17T23:00:18.696Z,21.60
2018-07-17T23:02:47.196Z,21.60
2018-07-17T23:07:46.899Z,21.60
2018-07-17T23:10:17.228Z,21.60
2018-07-17T23:12:47.065Z,21.60
2018-07-17T23:15:15.761Z,21.70
2018-07-17T23:17:44.240Z,21.80
2018-07-17T23:20:12.739Z,21.90
2018-07-17T23:22:49.860Z,22.00
2018-07-17T23:25:18.308Z,22.00
2018-07-17T23:27:46.987Z,22.00
2018-07-17T23:30:15.797Z,22.10
2018-07-17T23:32:44.302Z,22.10
2018-07-17T23:35:12.801Z,22.10
2018-07-17T23:37:41.378Z,22.10
2018-07-17T23:40:09.863Z,22.00
2018-07-17T23:42:38.591Z,21.90
2018-07-17T23:45:07.312Z,21.80
2018-07-17T23:47:35.912Z,21.70
2018-07-17T23:50:04.553Z,21.60
2018-07-17T23:52:33.086Z,21.50
2018-07-17T23:55:01.540Z,21.40
2018-07-17T23:57:30.095Z,21.30
2018-07-17T23:59:58.729Z,21.10
